sensor_id;sensor_type;location;lat;lon;timestamp;temperature;humidity
13326;DHT22;6732;51.044;3.746;2022-12-24T00:00:22;11.50;99.90
13326;DHT22;6732;51.044;3.746;2022-12-24T00:02:50;11.50;99.90
13326;DHT22;6732;51.044;3.746;2022-12-24T00:05:16;11.50;99.90
13326;DHT22;6732;51.044;3.746;2022-12-24T00:07:42;11.50;99.90
13326;DHT22;6732;51.044;3.746;2022-12-24T00:10:08;11.50;99.90
13326;DHT22;6732;51.044;3.746;2022-12-24T00:12:35;11.50;99.90
13326;DHT22;6732;51.044;3.746;2022-12-24T00:15:02;11.50;99.90
13326;DHT22;6732;51.044;3.746;2022-12-24T00:17:28;11.50;99.90
13326;DHT22;6732;51.044;3.746;2022-12-24T00:19:54;11.50;99.90
13326;DHT22;6732;51.044;3.746;2022-12-24T00:22:20;11.50;99.90
13326;DHT22;6732;51.044;3.746;2022-12-24T00:24:46;11.50;99.90
13326;DHT22;6732;51.044;3.746;2022-12-24T00:27:12;11.50;99.90
13326;DHT22;6732;51.044;3.746;2022-12-24T00:29:37;11.50;99.90
13326;DHT22;6732;51.044;3.746;2022-12-24T00:32:03;11.50;99.90
13326;DHT22;6732;51.044;3.746;2022-12-24T00:34:33;11.50;99.90
13326;DHT22;6732;51.044;3.746;2022-12-24T00:36:58;11.50;99.90
13326;DHT22;6732;51.044;3.746;2022-12-24T00:39:24;11.50;99.90
13326;DHT22;6732;51.044;3.746;2022-12-24T00:41:50;11.50;99.90
13326;DHT22;6732;51.044;3.746;2022-12-24T00:44:16;11.50;99.90
13326;DHT22;6732;51.044;3.746;2022-12-24T00:46:42;11.50;99.90
13326;DHT22;6732;51.044;3.746;2022-12-24T00:49:08;11.50;99.90
13326;DHT22;6732;51.044;3.746;2022-12-24T00:51:35;11.50;99.90
13326;DHT22;6732;51.044;3.746;2022-12-24T00:54:01;11.50;99.90
13326;DHT22;6732;51.044;3.746;2022-12-24T00:56:27;11.50;99.90
13326;DHT22;6732;51.044;3.746;2022-12-24T00:58:53;11.50;99.90
13326;DHT22;6732;51.044;3.746;2022-12-24T01:01:22;11.50;99.90
13326;DHT22;6732;51.044;3.746;2022-12-24T01:03:49;11.50;99.90
13326;DHT22;6732;51.044;3.746;2022-12-24T01:06:18;11.50;99.90
13326;DHT22;6732;51.044;3.746;2022-12-24T01:08:45;11.50;99.90
13326;DHT22;6732;51.044;3.746;2022-12-24T01:11:12;11.50;99.90
13326;DHT22;6732;51.044;3.746;2022-12-24T01:13:38;11.50;99.90
13326;DHT22;6732;51.044;3.746;2022-12-24T01:16:16;11.50;99.90
13326;DHT22;6732;51.044;3.746;2022-12-24T01:18:42;11.50;99.90
13326;DHT22;6732;51.044;3.746;2022-12-24T01:21:08;11.50;99.90
13326;DHT22;6732;51.044;3.746;2022-12-24T01:23:34;11.50;99.90
13326;DHT22;6732;51.044;3.746;2022-12-24T01:26:01;11.50;99.90
13326;DHT22;6732;51.044;3.746;2022-12-24T01:28:27;11.50;99.90
13326;DHT22;6732;51.044;3.746;2022-12-24T01:30:53;11.50;99.90
13326;DHT22;6732;51.044;3.746;2022-12-24T01:33:20;11.50;99.90
13326;DHT22;6732;51.044;3.746;2022-12-24T01:35:45;11.50;99.90
13326;DHT22;6732;51.044;3.746;2022-12-24T01:38:12;11.50;99.90
13326;DHT22;6732;51.044;3.746;2022-12-24T01:40:39;11.50;99.90
13326;DHT22;6732;51.044;3.746;2022-12-24T01:43:26;11.50;99.90
13326;DHT22;6732;51.044;3.746;2022-12-24T01:46:02;11.50;99.90
13326;DHT22;6732;51.044;3.746;2022-12-24T01:53:54;11.50;99.90
13326;DHT22;6732;51.044;3.746;2022-12-24T01:56:22;11.50;99.90
13326;DHT22;6732;51.044;3.746;2022-12-24T01:58:53;11.50;99.90
13326;DHT22;6732;51.044;3.746;2022-12-24T02:01:20;11.50;99.90
13326;DHT22;6732;51.044;3.746;2022-12-24T02:03:46;11.50;99.90
13326;DHT22;6732;51.044;3.746;2022-12-24T02:06:14;11.50;99.90
13326;DHT22;6732;51.044;3.746;2022-12-24T02:08:41;11.50;99.90
13326;DHT22;6732;51.044;3.746;2022-12-24T02:11:13;11.50;99.90
13326;DHT22;6732;51.044;3.746;2022-12-24T02:13:40;11.50;99.90
13326;DHT22;6732;51.044;3.746;2022-12-24T02:16:25;11.50;99.90
13326;DHT22;6732;51.044;3.746;2022-12-24T02:24:30;11.50;99.90
13326;DHT22;6732;51.044;3.746;2022-12-24T02:27:25;11.50;99.90
13326;DHT22;6732;51.044;3.746;2022-12-24T02:30:04;11.50;99.90
13326;DHT22;6732;51.044;3.746;2022-12-24T02:32:52;11.50;99.90
13326;DHT22;6732;51.044;3.746;2022-12-24T02:36:01;11.50;99.90
13326;DHT22;6732;51.044;3.746;2022-12-24T02:39:09;11.50;99.90
13326;DHT22;6732;51.044;3.746;2022-12-24T02:42:07;11.50;99.90
13326;DHT22;6732;51.044;3.746;2022-12-24T02:45:09;11.50;99.90
13326;DHT22;6732;51.044;3.746;2022-12-24T02:48:04;11.50;99.90
13326;DHT22;6732;51.044;3.746;2022-12-24T02:51:05;11.50;99.90
13326;DHT22;6732;51.044;3.746;2022-12-24T02:54:00;11.50;99.90
13326;DHT22;6732;51.044;3.746;2022-12-24T02:56:57;11.50;99.90
13326;DHT22;6732;51.044;3.746;2022-12-24T03:04:58;11.40;99.90
13326;DHT22;6732;51.044;3.746;2022-12-24T03:07:43;11.50;99.90
13326;DHT22;6732;51.044;3.746;2022-12-24T03:10:27;11.40;99.90
13326;DHT22;6732;51.044;3.746;2022-12-24T03:13:01;11.40;99.90
13326;DHT22;6732;51.044;3.746;2022-12-24T03:15:28;11.40;99.90
13326;DHT22;6732;51.044;3.746;2022-12-24T03:17:58;11.40;99.90
13326;DHT22;6732;51.044;3.746;2022-12-24T03:20:31;11.40;99.90
13326;DHT22;6732;51.044;3.746;2022-12-24T03:22:58;11.40;99.90
13326;DHT22;6732;51.044;3.746;2022-12-24T03:25:24;11.40;99.90
13326;DHT22;6732;51.044;3.746;2022-12-24T03:27:51;11.40;99.90
13326;DHT22;6732;51.044;3.746;2022-12-24T03:30:19;11.40;99.90
13326;DHT22;6732;51.044;3.746;2022-12-24T03:32:45;11.40;99.90
13326;DHT22;6732;51.044;3.746;2022-12-24T03:35:12;11.40;99.90
13326;DHT22;6732;51.044;3.746;2022-12-24T03:37:38;11.40;99.90
13326;DHT22;6732;51.044;3.746;2022-12-24T03:40:05;11.40;99.90
13326;DHT22;6732;51.044;3.746;2022-12-24T03:42:31;11.30;99.90
13326;DHT22;6732;51.044;3.746;2022-12-24T03:44:57;11.30;99.90
13326;DHT22;6732;51.044;3.746;2022-12-24T03:47:22;11.30;99.90
13326;DHT22;6732;51.044;3.746;2022-12-24T03:49:48;11.30;99.90
13326;DHT22;6732;51.044;3.746;2022-12-24T03:52:14;11.30;99.90
13326;DHT22;6732;51.044;3.746;2022-12-24T03:54:40;11.30;99.90
13326;DHT22;6732;51.044;3.746;2022-12-24T03:57:06;11.40;99.90
13326;DHT22;6732;51.044;3.746;2022-12-24T03:59:32;11.30;99.90
13326;DHT22;6732;51.044;3.746;2022-12-24T04:01:58;11.30;99.90
13326;DHT22;6732;51.044;3.746;2022-12-24T04:04:24;11.30;99.90
13326;DHT22;6732;51.044;3.746;2022-12-24T04:06:50;11.30;99.90
13326;DHT22;6732;51.044;3.746;2022-12-24T04:09:15;11.30;99.90
13326;DHT22;6732;51.044;3.746;2022-12-24T04:11:41;11.30;99.90
13326;DHT22;6732;51.044;3.746;2022-12-24T04:14:07;11.30;99.90
13326;DHT22;6732;51.044;3.746;2022-12-24T04:16:33;11.30;99.90
13326;DHT22;6732;51.044;3.746;2022-12-24T04:18:59;11.30;99.90
13326;DHT22;6732;51.044;3.746;2022-12-24T04:21:24;11.30;99.90
13326;DHT22;6732;51.044;3.746;2022-12-24T04:23:50;11.30;99.90
13326;DHT22;6732;51.044;3.746;2022-12-24T04:26:17;11.30;99.90
13326;DHT22;6732;51.044;3.746;2022-12-24T04:28:43;11.30;99.90
13326;DHT22;6732;51.044;3.746;2022-12-24T04:31:12;11.30;99.90
13326;DHT22;6732;51.044;3.746;2022-12-24T04:33:38;11.30;99.90
13326;DHT22;6732;51.044;3.746;2022-12-24T04:36:05;11.20;99.90
13326;DHT22;6732;51.044;3.746;2022-12-24T04:38:32;11.30;99.90
13326;DHT22;6732;51.044;3.746;2022-12-24T04:41:02;11.20;99.90
13326;DHT22;6732;51.044;3.746;2022-12-24T04:43:29;11.20;99.90
13326;DHT22;6732;51.044;3.746;2022-12-24T04:45:55;11.30;99.90
13326;DHT22;6732;51.044;3.746;2022-12-24T04:48:21;11.30;99.90
13326;DHT22;6732;51.044;3.746;2022-12-24T04:50:46;11.20;99.90
13326;DHT22;6732;51.044;3.746;2022-12-24T04:53:13;11.20;99.90
13326;DHT22;6732;51.044;3.746;2022-12-24T04:55:46;11.20;99.90
13326;DHT22;6732;51.044;3.746;2022-12-24T04:58:12;11.20;99.90
13326;DHT22;6732;51.044;3.746;2022-12-24T05:00:39;11.20;99.90
13326;DHT22;6732;51.044;3.746;2022-12-24T05:03:06;11.20;99.90
13326;DHT22;6732;51.044;3.746;2022-12-24T05:05:32;11.20;99.90
13326;DHT22;6732;51.044;3.746;2022-12-24T05:07:57;11.20;99.90
13326;DHT22;6732;51.044;3.746;2022-12-24T05:10:23;11.20;99.90
13326;DHT22;6732;51.044;3.746;2022-12-24T05:12:49;11.20;99.90
13326;DHT22;6732;51.044;3.746;2022-12-24T05:15:15;11.20;99.90
13326;DHT22;6732;51.044;3.746;2022-12-24T05:17:41;11.20;99.90
13326;DHT22;6732;51.044;3.746;2022-12-24T05:20:07;11.20;99.90
13326;DHT22;6732;51.044;3.746;2022-12-24T05:22:32;11.20;99.90
13326;DHT22;6732;51.044;3.746;2022-12-24T05:25:17;11.20;99.90
13326;DHT22;6732;51.044;3.746;2022-12-24T05:28:02;11.20;99.90
13326;DHT22;6732;51.044;3.746;2022-12-24T05:30:28;11.20;99.90
13326;DHT22;6732;51.044;3.746;2022-12-24T05:32:53;11.20;99.90
13326;DHT22;6732;51.044;3.746;2022-12-24T05:35:19;11.20;99.90
13326;DHT22;6732;51.044;3.746;2022-12-24T05:37:45;11.20;99.90
13326;DHT22;6732;51.044;3.746;2022-12-24T05:40:11;11.20;99.90
13326;DHT22;6732;51.044;3.746;2022-12-24T05:42:37;11.20;99.90
13326;DHT22;6732;51.044;3.746;2022-12-24T05:45:03;11.20;99.90
13326;DHT22;6732;51.044;3.746;2022-12-24T05:47:29;11.20;99.90
13326;DHT22;6732;51.044;3.746;2022-12-24T05:49:55;11.20;99.90
13326;DHT22;6732;51.044;3.746;2022-12-24T05:52:20;11.20;99.90
13326;DHT22;6732;51.044;3.746;2022-12-24T05:54:46;11.20;99.90
13326;DHT22;6732;51.044;3.746;2022-12-24T05:57:12;11.20;99.90
13326;DHT22;6732;51.044;3.746;2022-12-24T05:59:38;11.20;99.90
13326;DHT22;6732;51.044;3.746;2022-12-24T06:02:04;11.20;99.90
13326;DHT22;6732;51.044;3.746;2022-12-24T06:04:30;11.20;99.90
13326;DHT22;6732;51.044;3.746;2022-12-24T06:06:56;11.20;99.90
13326;DHT22;6732;51.044;3.746;2022-12-24T06:09:22;11.20;99.90
13326;DHT22;6732;51.044;3.746;2022-12-24T06:11:47;11.20;99.90
13326;DHT22;6732;51.044;3.746;2022-12-24T06:14:13;11.20;99.90
13326;DHT22;6732;51.044;3.746;2022-12-24T06:16:39;11.20;99.90
13326;DHT22;6732;51.044;3.746;2022-12-24T06:19:05;11.20;99.90
13326;DHT22;6732;51.044;3.746;2022-12-24T06:21:31;11.20;99.90
13326;DHT22;6732;51.044;3.746;2022-12-24T06:23:57;11.20;99.90
13326;DHT22;6732;51.044;3.746;2022-12-24T06:26:23;11.20;99.90
13326;DHT22;6732;51.044;3.746;2022-12-24T06:28:49;11.20;99.90
13326;DHT22;6732;51.044;3.746;2022-12-24T06:31:18;11.20;99.90
13326;DHT22;6732;51.044;3.746;2022-12-24T06:33:44;11.20;99.90
13326;DHT22;6732;51.044;3.746;2022-12-24T06:36:16;11.20;99.90
13326;DHT22;6732;51.044;3.746;2022-12-24T06:38:44;11.20;99.90
13326;DHT22;6732;51.044;3.746;2022-12-24T06:41:10;11.20;99.90
13326;DHT22;6732;51.044;3.746;2022-12-24T06:43:36;11.20;99.90
13326;DHT22;6732;51.044;3.746;2022-12-24T06:46:02;11.20;99.90
13326;DHT22;6732;51.044;3.746;2022-12-24T06:48:28;11.20;99.90
13326;DHT22;6732;51.044;3.746;2022-12-24T06:50:54;11.20;99.90
13326;DHT22;6732;51.044;3.746;2022-12-24T06:53:20;11.20;99.90
13326;DHT22;6732;51.044;3.746;2022-12-24T06:55:47;11.10;99.90
13326;DHT22;6732;51.044;3.746;2022-12-24T06:58:13;11.20;99.90
13326;DHT22;6732;51.044;3.746;2022-12-24T07:00:39;11.10;99.90
13326;DHT22;6732;51.044;3.746;2022-12-24T07:03:05;11.10;99.90
13326;DHT22;6732;51.044;3.746;2022-12-24T07:05:31;11.20;99.90
13326;DHT22;6732;51.044;3.746;2022-12-24T07:07:57;11.10;99.90
13326;DHT22;6732;51.044;3.746;2022-12-24T07:10:23;11.10;99.90
13326;DHT22;6732;51.044;3.746;2022-12-24T07:12:48;11.10;99.90
13326;DHT22;6732;51.044;3.746;2022-12-24T07:15:15;11.10;99.90
13326;DHT22;6732;51.044;3.746;2022-12-24T07:17:41;11.10;99.90
13326;DHT22;6732;51.044;3.746;2022-12-24T07:20:10;11.20;99.90
13326;DHT22;6732;51.044;3.746;2022-12-24T07:22:36;11.10;99.90
13326;DHT22;6732;51.044;3.746;2022-12-24T07:25:02;11.10;99.90
13326;DHT22;6732;51.044;3.746;2022-12-24T07:27:29;11.10;99.90
13326;DHT22;6732;51.044;3.746;2022-12-24T07:29:55;11.20;99.90
13326;DHT22;6732;51.044;3.746;2022-12-24T07:32:21;11.10;99.90
13326;DHT22;6732;51.044;3.746;2022-12-24T07:34:47;11.20;99.90
13326;DHT22;6732;51.044;3.746;2022-12-24T07:37:13;11.10;99.90
13326;DHT22;6732;51.044;3.746;2022-12-24T07:39:39;11.20;99.90
13326;DHT22;6732;51.044;3.746;2022-12-24T07:42:04;11.10;99.90
13326;DHT22;6732;51.044;3.746;2022-12-24T07:44:33;11.10;99.90
13326;DHT22;6732;51.044;3.746;2022-12-24T07:46:59;11.10;99.90
13326;DHT22;6732;51.044;3.746;2022-12-24T07:49:24;11.10;99.90
13326;DHT22;6732;51.044;3.746;2022-12-24T07:51:50;11.10;99.90
13326;DHT22;6732;51.044;3.746;2022-12-24T07:54:16;11.10;99.90
13326;DHT22;6732;51.044;3.746;2022-12-24T07:56:42;11.10;99.90
13326;DHT22;6732;51.044;3.746;2022-12-24T07:59:11;11.10;99.90
13326;DHT22;6732;51.044;3.746;2022-12-24T08:01:37;11.10;99.90
13326;DHT22;6732;51.044;3.746;2022-12-24T08:04:03;11.10;99.90
13326;DHT22;6732;51.044;3.746;2022-12-24T08:06:29;11.10;99.90
13326;DHT22;6732;51.044;3.746;2022-12-24T08:08:55;11.10;99.90
13326;DHT22;6732;51.044;3.746;2022-12-24T08:11:21;11.10;99.90
13326;DHT22;6732;51.044;3.746;2022-12-24T08:13:47;11.10;99.90
13326;DHT22;6732;51.044;3.746;2022-12-24T08:16:13;11.10;99.90
13326;DHT22;6732;51.044;3.746;2022-12-24T08:18:39;11.10;99.90
13326;DHT22;6732;51.044;3.746;2022-12-24T08:21:08;11.10;99.90
13326;DHT22;6732;51.044;3.746;2022-12-24T08:23:35;11.10;99.90
13326;DHT22;6732;51.044;3.746;2022-12-24T08:26:01;11.10;99.90
13326;DHT22;6732;51.044;3.746;2022-12-24T08:28:28;11.10;99.90
13326;DHT22;6732;51.044;3.746;2022-12-24T08:30:54;11.10;99.90
13326;DHT22;6732;51.044;3.746;2022-12-24T08:33:20;11.10;99.90
13326;DHT22;6732;51.044;3.746;2022-12-24T08:35:51;11.10;99.90
13326;DHT22;6732;51.044;3.746;2022-12-24T08:38:18;11.10;99.90
13326;DHT22;6732;51.044;3.746;2022-12-24T08:40:44;11.10;99.90
13326;DHT22;6732;51.044;3.746;2022-12-24T08:43:11;11.10;99.90
13326;DHT22;6732;51.044;3.746;2022-12-24T08:45:38;11.10;99.90
13326;DHT22;6732;51.044;3.746;2022-12-24T08:48:05;11.10;99.90
13326;DHT22;6732;51.044;3.746;2022-12-24T08:50:31;11.10;99.90
13326;DHT22;6732;51.044;3.746;2022-12-24T08:52:57;11.10;99.90
13326;DHT22;6732;51.044;3.746;2022-12-24T08:55:25;11.10;99.90
13326;DHT22;6732;51.044;3.746;2022-12-24T08:57:50;11.10;99.90
13326;DHT22;6732;51.044;3.746;2022-12-24T09:00:17;11.10;99.90
13326;DHT22;6732;51.044;3.746;2022-12-24T09:02:43;11.10;99.90
13326;DHT22;6732;51.044;3.746;2022-12-24T09:05:09;11.10;99.90
13326;DHT22;6732;51.044;3.746;2022-12-24T09:07:35;11.10;99.90
13326;DHT22;6732;51.044;3.746;2022-12-24T09:10:02;11.10;99.90
13326;DHT22;6732;51.044;3.746;2022-12-24T09:12:28;11.10;99.90
13326;DHT22;6732;51.044;3.746;2022-12-24T09:14:54;11.10;99.90
13326;DHT22;6732;51.044;3.746;2022-12-24T09:17:20;11.10;99.90
13326;DHT22;6732;51.044;3.746;2022-12-24T09:19:46;11.10;99.90
13326;DHT22;6732;51.044;3.746;2022-12-24T09:22:13;11.20;99.90
13326;DHT22;6732;51.044;3.746;2022-12-24T09:24:39;11.10;99.90
13326;DHT22;6732;51.044;3.746;2022-12-24T09:27:05;11.20;99.90
13326;DHT22;6732;51.044;3.746;2022-12-24T09:29:31;11.10;99.90
13326;DHT22;6732;51.044;3.746;2022-12-24T09:31:57;11.20;99.90
13326;DHT22;6732;51.044;3.746;2022-12-24T09:34:24;11.10;99.90
13326;DHT22;6732;51.044;3.746;2022-12-24T09:36:50;11.20;99.90
13326;DHT22;6732;51.044;3.746;2022-12-24T09:39:19;11.20;99.90
13326;DHT22;6732;51.044;3.746;2022-12-24T09:44:42;11.20;99.90
13326;DHT22;6732;51.044;3.746;2022-12-24T09:47:21;11.20;99.90
13326;DHT22;6732;51.044;3.746;2022-12-24T09:49:51;11.20;99.90
13326;DHT22;6732;51.044;3.746;2022-12-24T09:52:40;11.20;99.90
13326;DHT22;6732;51.044;3.746;2022-12-24T09:55:19;11.20;99.90
13326;DHT22;6732;51.044;3.746;2022-12-24T09:57:46;11.20;99.90
13326;DHT22;6732;51.044;3.746;2022-12-24T10:00:31;11.20;99.90
13326;DHT22;6732;51.044;3.746;2022-12-24T10:02:57;11.20;99.90
13326;DHT22;6732;51.044;3.746;2022-12-24T10:11:01;11.20;99.90
13326;DHT22;6732;51.044;3.746;2022-12-24T10:13:46;11.20;99.90
13326;DHT22;6732;51.044;3.746;2022-12-24T10:16:46;11.20;99.90
13326;DHT22;6732;51.044;3.746;2022-12-24T10:22:27;11.20;99.90
13326;DHT22;6732;51.044;3.746;2022-12-24T10:35:54;11.20;99.90
13326;DHT22;6732;51.044;3.746;2022-12-24T10:38:21;11.20;99.90
13326;DHT22;6732;51.044;3.746;2022-12-24T10:40:51;11.20;99.90
13326;DHT22;6732;51.044;3.746;2022-12-24T10:43:24;11.20;99.90
13326;DHT22;6732;51.044;3.746;2022-12-24T10:46:06;11.20;99.90
13326;DHT22;6732;51.044;3.746;2022-12-24T10:48:41;11.20;99.90
13326;DHT22;6732;51.044;3.746;2022-12-24T10:51:33;11.20;99.90
13326;DHT22;6732;51.044;3.746;2022-12-24T10:56:27;11.20;99.90
13326;DHT22;6732;51.044;3.746;2022-12-24T10:58:54;11.30;99.90
13326;DHT22;6732;51.044;3.746;2022-12-24T11:01:44;11.30;99.90
13326;DHT22;6732;51.044;3.746;2022-12-24T11:04:20;11.30;99.90
13326;DHT22;6732;51.044;3.746;2022-12-24T11:06:55;11.30;99.90
13326;DHT22;6732;51.044;3.746;2022-12-24T11:09:39;11.30;99.90
13326;DHT22;6732;51.044;3.746;2022-12-24T11:12:16;11.30;99.90
13326;DHT22;6732;51.044;3.746;2022-12-24T11:14:43;11.30;99.90
13326;DHT22;6732;51.044;3.746;2022-12-24T11:17:19;11.30;99.90
13326;DHT22;6732;51.044;3.746;2022-12-24T11:19:48;11.30;99.90
13326;DHT22;6732;51.044;3.746;2022-12-24T11:22:24;11.30;99.90
13326;DHT22;6732;51.044;3.746;2022-12-24T11:30:58;11.30;99.90
13326;DHT22;6732;51.044;3.746;2022-12-24T11:33:25;11.40;99.90
13326;DHT22;6732;51.044;3.746;2022-12-24T11:35:54;11.30;99.90
13326;DHT22;6732;51.044;3.746;2022-12-24T11:38:23;11.40;99.90
13326;DHT22;6732;51.044;3.746;2022-12-24T11:40:58;11.40;99.90
13326;DHT22;6732;51.044;3.746;2022-12-24T11:43:25;11.40;99.90
13326;DHT22;6732;51.044;3.746;2022-12-24T11:46:20;11.40;99.90
13326;DHT22;6732;51.044;3.746;2022-12-24T11:48:47;11.40;99.90
13326;DHT22;6732;51.044;3.746;2022-12-24T11:51:31;11.40;99.90
13326;DHT22;6732;51.044;3.746;2022-12-24T11:56:50;11.50;99.90
13326;DHT22;6732;51.044;3.746;2022-12-24T11:59:32;11.50;99.90
13326;DHT22;6732;51.044;3.746;2022-12-24T12:05:15;11.50;99.90
13326;DHT22;6732;51.044;3.746;2022-12-24T12:07:42;11.50;99.90
13326;DHT22;6732;51.044;3.746;2022-12-24T12:10:26;11.60;99.90
13326;DHT22;6732;51.044;3.746;2022-12-24T12:13:15;11.50;99.90
13326;DHT22;6732;51.044;3.746;2022-12-24T12:15:50;11.60;99.90
13326;DHT22;6732;51.044;3.746;2022-12-24T12:18:34;11.60;99.90
13326;DHT22;6732;51.044;3.746;2022-12-24T12:21:10;11.60;99.90
13326;DHT22;6732;51.044;3.746;2022-12-24T12:23:51;11.60;99.90
13326;DHT22;6732;51.044;3.746;2022-12-24T12:26:27;11.60;99.90
13326;DHT22;6732;51.044;3.746;2022-12-24T12:28:55;11.60;99.90
13326;DHT22;6732;51.044;3.746;2022-12-24T12:31:46;11.60;99.90
13326;DHT22;6732;51.044;3.746;2022-12-24T12:39:10;11.60;99.90
13326;DHT22;6732;51.044;3.746;2022-12-24T12:47:12;11.70;99.90
13326;DHT22;6732;51.044;3.746;2022-12-24T12:52:43;11.70;99.90
13326;DHT22;6732;51.044;3.746;2022-12-24T12:57:57;11.70;99.90
13326;DHT22;6732;51.044;3.746;2022-12-24T13:00:25;11.70;99.90
13326;DHT22;6732;51.044;3.746;2022-12-24T13:11:35;11.80;99.90
13326;DHT22;6732;51.044;3.746;2022-12-24T13:20:27;11.80;99.90
13326;DHT22;6732;51.044;3.746;2022-12-24T13:23:00;11.80;99.90
13326;DHT22;6732;51.044;3.746;2022-12-24T13:25:50;11.80;99.90
13326;DHT22;6732;51.044;3.746;2022-12-24T13:30:47;12.00;99.90
13326;DHT22;6732;51.044;3.746;2022-12-24T13:40:55;12.10;99.90
13326;DHT22;6732;51.044;3.746;2022-12-24T13:43:21;12.10;99.90
13326;DHT22;6732;51.044;3.746;2022-12-24T13:45:49;12.10;99.90
13326;DHT22;6732;51.044;3.746;2022-12-24T13:48:26;12.10;99.90
13326;DHT22;6732;51.044;3.746;2022-12-24T13:50:58;12.10;99.90
13326;DHT22;6732;51.044;3.746;2022-12-24T13:56:09;12.00;99.90
13326;DHT22;6732;51.044;3.746;2022-12-24T13:58:48;12.00;99.90
13326;DHT22;6732;51.044;3.746;2022-12-24T14:01:19;12.00;99.90
13326;DHT22;6732;51.044;3.746;2022-12-24T14:08:46;12.00;99.90
13326;DHT22;6732;51.044;3.746;2022-12-24T14:16:18;12.00;99.90
13326;DHT22;6732;51.044;3.746;2022-12-24T14:22:02;12.00;99.90
13326;DHT22;6732;51.044;3.746;2022-12-24T14:24:35;12.00;99.90
13326;DHT22;6732;51.044;3.746;2022-12-24T14:30:06;11.90;99.90
13326;DHT22;6732;51.044;3.746;2022-12-24T14:32:38;11.90;99.90
13326;DHT22;6732;51.044;3.746;2022-12-24T14:35:34;11.90;99.90
13326;DHT22;6732;51.044;3.746;2022-12-24T14:38:11;11.90;99.90
13326;DHT22;6732;51.044;3.746;2022-12-24T14:46:55;12.00;99.90
13326;DHT22;6732;51.044;3.746;2022-12-24T14:52:34;12.00;99.90
13326;DHT22;6732;51.044;3.746;2022-12-24T14:54:40;12.10;99.90
13326;DHT22;6732;51.044;3.746;2022-12-24T15:07:30;12.00;99.90
13326;DHT22;6732;51.044;3.746;2022-12-24T15:09:57;11.90;99.90
13326;DHT22;6732;51.044;3.746;2022-12-24T15:12:24;11.90;99.90
13326;DHT22;6732;51.044;3.746;2022-12-24T15:14:50;11.90;99.90
13326;DHT22;6732;51.044;3.746;2022-12-24T15:17:16;11.90;99.90
13326;DHT22;6732;51.044;3.746;2022-12-24T15:19:43;11.90;99.90
13326;DHT22;6732;51.044;3.746;2022-12-24T15:22:22;11.90;99.90
13326;DHT22;6732;51.044;3.746;2022-12-24T15:24:49;11.90;99.90
13326;DHT22;6732;51.044;3.746;2022-12-24T15:27:25;11.90;99.90
13326;DHT22;6732;51.044;3.746;2022-12-24T15:29:57;11.90;99.90
13326;DHT22;6732;51.044;3.746;2022-12-24T15:32:23;11.90;99.90
13326;DHT22;6732;51.044;3.746;2022-12-24T15:34:52;11.90;99.90
13326;DHT22;6732;51.044;3.746;2022-12-24T15:37:22;11.80;99.90
13326;DHT22;6732;51.044;3.746;2022-12-24T15:39:57;11.80;99.90
13326;DHT22;6732;51.044;3.746;2022-12-24T15:42:27;11.80;99.90
13326;DHT22;6732;51.044;3.746;2022-12-24T15:45:20;11.80;99.90
13326;DHT22;6732;51.044;3.746;2022-12-24T15:50:24;11.80;99.90
13326;DHT22;6732;51.044;3.746;2022-12-24T15:52:52;11.80;99.90
13326;DHT22;6732;51.044;3.746;2022-12-24T15:55:26;11.80;99.90
13326;DHT22;6732;51.044;3.746;2022-12-24T15:57:52;11.80;99.90
13326;DHT22;6732;51.044;3.746;2022-12-24T16:00:24;11.80;99.90
13326;DHT22;6732;51.044;3.746;2022-12-24T16:03:17;11.70;99.90
13326;DHT22;6732;51.044;3.746;2022-12-24T16:05:43;11.70;99.90
13326;DHT22;6732;51.044;3.746;2022-12-24T16:10:40;11.70;99.90
13326;DHT22;6732;51.044;3.746;2022-12-24T16:13:31;11.70;99.90
13326;DHT22;6732;51.044;3.746;2022-12-24T16:16:02;11.70;99.90
13326;DHT22;6732;51.044;3.746;2022-12-24T16:21:04;11.70;99.90
13326;DHT22;6732;51.044;3.746;2022-12-24T16:23:43;11.70;99.90
13326;DHT22;6732;51.044;3.746;2022-12-24T16:26:10;11.70;99.90
13326;DHT22;6732;51.044;3.746;2022-12-24T16:28:36;11.70;99.90
13326;DHT22;6732;51.044;3.746;2022-12-24T16:31:02;11.70;99.90
13326;DHT22;6732;51.044;3.746;2022-12-24T16:33:28;11.70;99.90
13326;DHT22;6732;51.044;3.746;2022-12-24T16:35:54;11.70;99.90
13326;DHT22;6732;51.044;3.746;2022-12-24T16:38:20;11.70;99.90
13326;DHT22;6732;51.044;3.746;2022-12-24T16:40:46;11.60;99.90
13326;DHT22;6732;51.044;3.746;2022-12-24T16:43:12;11.60;99.90
13326;DHT22;6732;51.044;3.746;2022-12-24T16:46:04;11.60;99.90
13326;DHT22;6732;51.044;3.746;2022-12-24T16:48:30;11.60;99.90
13326;DHT22;6732;51.044;3.746;2022-12-24T16:51:00;11.60;99.90
13326;DHT22;6732;51.044;3.746;2022-12-24T16:53:27;11.60;99.90
13326;DHT22;6732;51.044;3.746;2022-12-24T16:55:53;11.60;99.90
13326;DHT22;6732;51.044;3.746;2022-12-24T16:58:20;11.60;99.90
13326;DHT22;6732;51.044;3.746;2022-12-24T17:00:45;11.60;99.90
13326;DHT22;6732;51.044;3.746;2022-12-24T17:03:12;11.60;99.90
13326;DHT22;6732;51.044;3.746;2022-12-24T17:05:39;11.50;99.90
13326;DHT22;6732;51.044;3.746;2022-12-24T17:08:06;11.50;99.90
13326;DHT22;6732;51.044;3.746;2022-12-24T17:10:32;11.50;99.90
13326;DHT22;6732;51.044;3.746;2022-12-24T17:12:58;11.50;99.90
13326;DHT22;6732;51.044;3.746;2022-12-24T17:15:24;11.50;99.90
13326;DHT22;6732;51.044;3.746;2022-12-24T17:17:50;11.50;99.90
13326;DHT22;6732;51.044;3.746;2022-12-24T17:20:16;11.50;99.90
13326;DHT22;6732;51.044;3.746;2022-12-24T17:22:41;11.50;99.90
13326;DHT22;6732;51.044;3.746;2022-12-24T17:25:10;11.40;99.90
13326;DHT22;6732;51.044;3.746;2022-12-24T17:27:37;11.40;99.90
13326;DHT22;6732;51.044;3.746;2022-12-24T17:30:03;11.40;99.90
13326;DHT22;6732;51.044;3.746;2022-12-24T17:32:29;11.40;99.90
13326;DHT22;6732;51.044;3.746;2022-12-24T17:34:55;11.40;99.90
13326;DHT22;6732;51.044;3.746;2022-12-24T17:37:25;11.40;99.90
13326;DHT22;6732;51.044;3.746;2022-12-24T17:39:51;11.40;99.90
13326;DHT22;6732;51.044;3.746;2022-12-24T17:42:17;11.40;99.90
13326;DHT22;6732;51.044;3.746;2022-12-24T17:44:43;11.40;99.90
13326;DHT22;6732;51.044;3.746;2022-12-24T17:47:09;11.40;99.90
13326;DHT22;6732;51.044;3.746;2022-12-24T17:49:35;11.40;99.90
13326;DHT22;6732;51.044;3.746;2022-12-24T17:52:01;11.40;99.90
13326;DHT22;6732;51.044;3.746;2022-12-24T17:54:29;11.40;99.90
13326;DHT22;6732;51.044;3.746;2022-12-24T17:56:55;11.30;99.90
13326;DHT22;6732;51.044;3.746;2022-12-24T17:59:23;11.30;99.90
13326;DHT22;6732;51.044;3.746;2022-12-24T18:01:49;11.30;99.90
13326;DHT22;6732;51.044;3.746;2022-12-24T18:04:15;11.30;99.90
13326;DHT22;6732;51.044;3.746;2022-12-24T18:06:41;11.30;99.90
13326;DHT22;6732;51.044;3.746;2022-12-24T18:09:07;11.30;99.90
13326;DHT22;6732;51.044;3.746;2022-12-24T18:11:34;11.30;99.90
13326;DHT22;6732;51.044;3.746;2022-12-24T18:14:02;11.30;99.90
13326;DHT22;6732;51.044;3.746;2022-12-24T18:16:31;11.30;99.90
13326;DHT22;6732;51.044;3.746;2022-12-24T18:18:58;11.30;99.90
13326;DHT22;6732;51.044;3.746;2022-12-24T18:21:27;11.30;99.90